sensor_id;sensor_type;location;lat;lon;timestamp;P1;P2;P0
66395;PMS5003;72184;51.378;-1.342;2023-08-24T00:01:48;1;0;
66395;PMS5003;72184;51.378;-1.342;2023-08-24T00:04:15;0;0;
66395;PMS5003;72184;51.378;-1.342;2023-08-24T00:06:43;2;1;
66395;PMS5003;72184;51.378;-1.342;2023-08-24T00:09:10;0;0;
66395;PMS5003;72184;51.378;-1.342;2023-08-24T00:11:37;0;0;
66395;PMS5003;72184;51.378;-1.342;2023-08-24T00:14:03;1;0;
66395;PMS5003;72184;51.378;-1.342;2023-08-24T00:16:30;1;1;
66395;PMS5003;72184;51.378;-1.342;2023-08-24T00:18:57;1;1;
66395;PMS5003;72184;51.378;-1.342;2023-08-24T00:21:25;0;0;
66395;PMS5003;72184;51.378;-1.342;2023-08-24T00:23:53;0;0;
66395;PMS5003;72184;51.378;-1.342;2023-08-24T00:26:21;1;1;
66395;PMS5003;72184;51.378;-1.342;2023-08-24T00:28:48;0;0;
66395;PMS5003;72184;51.378;-1.342;2023-08-24T00:31:15;0;0;
66395;PMS5003;72184;51.378;-1.342;2023-08-24T00:33:43;0;0;
66395;PMS5003;72184;51.378;-1.342;2023-08-24T00:36:10;0;0;
66395;PMS5003;72184;51.378;-1.342;2023-08-24T00:38:37;1;0;
66395;PMS5003;72184;51.378;-1.342;2023-08-24T00:41:04;0;0;
66395;PMS5003;72184;51.378;-1.342;2023-08-24T00:43:32;1;1;
66395;PMS5003;72184;51.378;-1.342;2023-08-24T00:46:00;1;0;
66395;PMS5003;72184;51.378;-1.342;2023-08-24T00:48:29;0;0;
66395;PMS5003;72184;51.378;-1.342;2023-08-24T00:50:59;1;1;
66395;PMS5003;72184;51.378;-1.342;2023-08-24T00:53:28;1;0;
66395;PMS5003;72184;51.378;-1.342;2023-08-24T00:55:57;1;0;
66395;PMS5003;72184;51.378;-1.342;2023-08-24T00:58:26;1;0;
66395;PMS5003;72184;51.378;-1.342;2023-08-24T01:00:54;1;1;
66395;PMS5003;72184;51.378;-1.342;2023-08-24T01:03:24;0;0;
66395;PMS5003;72184;51.378;-1.342;2023-08-24T01:05:51;1;1;
66395;PMS5003;72184;51.378;-1.342;2023-08-24T01:08:19;0;0;
66395;PMS5003;72184;51.378;-1.342;2023-08-24T01:10:51;1;1;
66395;PMS5003;72184;51.378;-1.342;2023-08-24T01:13:26;3;2;
66395;PMS5003;72184;51.378;-1.342;2023-08-24T01:16:00;3;2;
66395;PMS5003;72184;51.378;-1.342;2023-08-24T01:18:32;1;1;
66395;PMS5003;72184;51.378;-1.342;2023-08-24T01:21:01;2;2;
66395;PMS5003;72184;51.378;-1.342;2023-08-24T01:23:33;1;0;
66395;PMS5003;72184;51.378;-1.342;2023-08-24T01:26:09;1;0;
66395;PMS5003;72184;51.378;-1.342;2023-08-24T01:28:38;3;2;
66395;PMS5003;72184;51.378;-1.342;2023-08-24T01:31:06;2;1;
66395;PMS5003;72184;51.378;-1.342;2023-08-24T01:33:34;1;1;
66395;PMS5003;72184;51.378;-1.342;2023-08-24T01:36:01;1;1;
66395;PMS5003;72184;51.378;-1.342;2023-08-24T01:38:29;3;2;
66395;PMS5003;72184;51.378;-1.342;2023-08-24T01:40:59;3;2;
66395;PMS5003;72184;51.378;-1.342;2023-08-24T01:43:35;3;2;
66395;PMS5003;72184;51.378;-1.342;2023-08-24T01:46:04;2;1;
66395;PMS5003;72184;51.378;-1.342;2023-08-24T01:48:33;2;2;
66395;PMS5003;72184;51.378;-1.342;2023-08-24T01:51:02;1;1;
66395;PMS5003;72184;51.378;-1.342;2023-08-24T01:53:31;2;1;
66395;PMS5003;72184;51.378;-1.342;2023-08-24T01:55:59;3;3;
66395;PMS5003;72184;51.378;-1.342;2023-08-24T01:58:26;2;1;
66395;PMS5003;72184;51.378;-1.342;2023-08-24T02:00:53;1;1;
66395;PMS5003;72184;51.378;-1.342;2023-08-24T02:03:20;1;1;
66395;PMS5003;72184;51.378;-1.342;2023-08-24T02:05:47;1;0;
66395;PMS5003;72184;51.378;-1.342;2023-08-24T02:08:14;1;1;
66395;PMS5003;72184;51.378;-1.342;2023-08-24T02:10:42;1;0;
66395;PMS5003;72184;51.378;-1.342;2023-08-24T02:13:09;2;1;
66395;PMS5003;72184;51.378;-1.342;2023-08-24T02:15:37;2;1;
66395;PMS5003;72184;51.378;-1.342;2023-08-24T02:18:04;2;2;
66395;PMS5003;72184;51.378;-1.342;2023-08-24T02:20:34;1;1;
66395;PMS5003;72184;51.378;-1.342;2023-08-24T02:23:01;2;1;
66395;PMS5003;72184;51.378;-1.342;2023-08-24T02:25:29;2;1;
66395;PMS5003;72184;51.378;-1.342;2023-08-24T02:27:57;1;0;
66395;PMS5003;72184;51.378;-1.342;2023-08-24T02:30:24;1;1;
66395;PMS5003;72184;51.378;-1.342;2023-08-24T02:32:52;2;1;
66395;PMS5003;72184;51.378;-1.342;2023-08-24T02:35:19;0;0;
66395;PMS5003;72184;51.378;-1.342;2023-08-24T02:37:46;3;2;
66395;PMS5003;72184;51.378;-1.342;2023-08-24T02:40:15;2;1;
66395;PMS5003;72184;51.378;-1.342;2023-08-24T02:42:42;1;0;
66395;PMS5003;72184;51.378;-1.342;2023-08-24T02:45:09;1;1;
66395;PMS5003;72184;51.378;-1.342;2023-08-24T02:47:36;0;0;
66395;PMS5003;72184;51.378;-1.342;2023-08-24T02:50:05;0;0;
66395;PMS5003;72184;51.378;-1.342;2023-08-24T02:52:33;2;2;
66395;PMS5003;72184;51.378;-1.342;2023-08-24T02:55:00;0;0;
66395;PMS5003;72184;51.378;-1.342;2023-08-24T02:57:27;3;3;
66395;PMS5003;72184;51.378;-1.342;2023-08-24T02:59:54;1;1;
66395;PMS5003;72184;51.378;-1.342;2023-08-24T03:02:21;0;0;
66395;PMS5003;72184;51.378;-1.342;2023-08-24T03:04:48;0;0;
66395;PMS5003;72184;51.378;-1.342;2023-08-24T03:07:15;2;2;
66395;PMS5003;72184;51.378;-1.342;2023-08-24T03:09:43;0;0;
66395;PMS5003;72184;51.378;-1.342;2023-08-24T03:12:10;0;0;
66395;PMS5003;72184;51.378;-1.342;2023-08-24T03:14:37;0;0;
66395;PMS5003;72184;51.378;-1.342;2023-08-24T03:17:04;0;0;
66395;PMS5003;72184;51.378;-1.342;2023-08-24T03:19:31;0;0;
66395;PMS5003;72184;51.378;-1.342;2023-08-24T03:21:58;1;0;
66395;PMS5003;72184;51.378;-1.342;2023-08-24T03:24:25;0;0;
66395;PMS5003;72184;51.378;-1.342;2023-08-24T03:26:52;0;0;
66395;PMS5003;72184;51.378;-1.342;2023-08-24T03:29:19;3;1;
66395;PMS5003;72184;51.378;-1.342;2023-08-24T03:31:46;0;0;
66395;PMS5003;72184;51.378;-1.342;2023-08-24T03:34:13;0;0;
66395;PMS5003;72184;51.378;-1.342;2023-08-24T03:36:40;1;0;
66395;PMS5003;72184;51.378;-1.342;2023-08-24T03:39:07;0;0;
66395;PMS5003;72184;51.378;-1.342;2023-08-24T03:41:34;1;1;
66395;PMS5003;72184;51.378;-1.342;2023-08-24T03:44:01;0;0;
66395;PMS5003;72184;51.378;-1.342;2023-08-24T03:46:28;0;0;
66395;PMS5003;72184;51.378;-1.342;2023-08-24T03:48:55;1;0;
66395;PMS5003;72184;51.378;-1.342;2023-08-24T03:51:22;1;1;
66395;PMS5003;72184;51.378;-1.342;2023-08-24T03:53:49;0;0;
66395;PMS5003;72184;51.378;-1.342;2023-08-24T03:56:16;0;0;
66395;PMS5003;72184;51.378;-1.342;2023-08-24T03:58:43;1;0;
66395;PMS5003;72184;51.378;-1.342;2023-08-24T04:01:10;2;1;
66395;PMS5003;72184;51.378;-1.342;2023-08-24T04:03:38;1;0;
66395;PMS5003;72184;51.378;-1.342;2023-08-24T04:06:05;0;0;
66395;PMS5003;72184;51.378;-1.342;2023-08-24T04:08:32;1;0;
66395;PMS5003;72184;51.378;-1.342;2023-08-24T04:10:59;1;0;
66395;PMS5003;72184;51.378;-1.342;2023-08-24T04:13:26;0;0;
66395;PMS5003;72184;51.378;-1.342;2023-08-24T04:15:53;1;1;
66395;PMS5003;72184;51.378;-1.342;2023-08-24T04:18:20;0;0;
66395;PMS5003;72184;51.378;-1.342;2023-08-24T04:20:47;0;0;
66395;PMS5003;72184;51.378;-1.342;2023-08-24T04:23:15;0;0;
66395;PMS5003;72184;51.378;-1.342;2023-08-24T04:25:42;1;0;
66395;PMS5003;72184;51.378;-1.342;2023-08-24T04:28:09;2;2;
66395;PMS5003;72184;51.378;-1.342;2023-08-24T04:30:36;0;0;
66395;PMS5003;72184;51.378;-1.342;2023-08-24T04:33:03;1;1;
66395;PMS5003;72184;51.378;-1.342;2023-08-24T04:35:33;1;1;
66395;PMS5003;72184;51.378;-1.342;2023-08-24T04:38:02;1;0;
66395;PMS5003;72184;51.378;-1.342;2023-08-24T04:40:29;0;0;
66395;PMS5003;72184;51.378;-1.342;2023-08-24T04:43:10;2;0;
66395;PMS5003;72184;51.378;-1.342;2023-08-24T04:45:37;1;0;
66395;PMS5003;72184;51.378;-1.342;2023-08-24T04:48:04;0;0;
66395;PMS5003;72184;51.378;-1.342;2023-08-24T04:50:32;0;0;
66395;PMS5003;72184;51.378;-1.342;2023-08-24T04:52:59;0;0;
66395;PMS5003;72184;51.378;-1.342;2023-08-24T04:55:26;1;1;
66395;PMS5003;72184;51.378;-1.342;2023-08-24T04:57:53;1;1;
66395;PMS5003;72184;51.378;-1.342;2023-08-24T05:00:20;0;0;
66395;PMS5003;72184;51.378;-1.342;2023-08-24T05:02:47;0;0;
66395;PMS5003;72184;51.378;-1.342;2023-08-24T05:05:14;1;0;
66395;PMS5003;72184;51.378;-1.342;2023-08-24T05:07:42;1;0;
66395;PMS5003;72184;51.378;-1.342;2023-08-24T05:10:10;2;1;
66395;PMS5003;72184;51.378;-1.342;2023-08-24T05:12:37;0;0;
66395;PMS5003;72184;51.378;-1.342;2023-08-24T05:15:05;1;0;
66395;PMS5003;72184;51.378;-1.342;2023-08-24T05:17:33;1;0;
66395;PMS5003;72184;51.378;-1.342;2023-08-24T05:20:00;0;0;
66395;PMS5003;72184;51.378;-1.342;2023-08-24T05:22:27;0;0;
66395;PMS5003;72184;51.378;-1.342;2023-08-24T05:24:54;2;2;
66395;PMS5003;72184;51.378;-1.342;2023-08-24T05:27:21;0;0;
66395;PMS5003;72184;51.378;-1.342;2023-08-24T05:29:48;1;1;
66395;PMS5003;72184;51.378;-1.342;2023-08-24T05:32:15;2;1;
66395;PMS5003;72184;51.378;-1.342;2023-08-24T05:34:44;0;0;
66395;PMS5003;72184;51.378;-1.342;2023-08-24T05:37:11;1;1;
66395;PMS5003;72184;51.378;-1.342;2023-08-24T05:39:38;1;0;
66395;PMS5003;72184;51.378;-1.342;2023-08-24T05:42:06;0;0;
66395;PMS5003;72184;51.378;-1.342;2023-08-24T05:44:34;1;0;
66395;PMS5003;72184;51.378;-1.342;2023-08-24T05:47:02;0;0;
66395;PMS5003;72184;51.378;-1.342;2023-08-24T05:49:29;0;0;
66395;PMS5003;72184;51.378;-1.342;2023-08-24T05:51:57;0;0;
66395;PMS5003;72184;51.378;-1.342;2023-08-24T05:54:24;1;1;
66395;PMS5003;72184;51.378;-1.342;2023-08-24T05:56:51;1;0;
66395;PMS5003;72184;51.378;-1.342;2023-08-24T05:59:18;0;0;
66395;PMS5003;72184;51.378;-1.342;2023-08-24T06:01:45;1;1;
66395;PMS5003;72184;51.378;-1.342;2023-08-24T06:04:12;1;1;
66395;PMS5003;72184;51.378;-1.342;2023-08-24T06:06:39;2;2;
66395;PMS5003;72184;51.378;-1.342;2023-08-24T06:09:06;0;0;
66395;PMS5003;72184;51.378;-1.342;2023-08-24T06:11:33;0;0;
66395;PMS5003;72184;51.378;-1.342;2023-08-24T06:14:00;0;0;
66395;PMS5003;72184;51.378;-1.342;2023-08-24T06:16:28;1;1;
66395;PMS5003;72184;51.378;-1.342;2023-08-24T06:18:55;1;0;
66395;PMS5003;72184;51.378;-1.342;2023-08-24T06:21:22;1;0;
66395;PMS5003;72184;51.378;-1.342;2023-08-24T06:23:50;0;0;
66395;PMS5003;72184;51.378;-1.342;2023-08-24T06:26:17;1;0;
66395;PMS5003;72184;51.378;-1.342;2023-08-24T06:28:45;1;1;
66395;PMS5003;72184;51.378;-1.342;2023-08-24T06:31:12;0;0;
66395;PMS5003;72184;51.378;-1.342;2023-08-24T06:33:39;1;0;
66395;PMS5003;72184;51.378;-1.342;2023-08-24T06:36:06;1;1;
66395;PMS5003;72184;51.378;-1.342;2023-08-24T06:38:34;1;0;
66395;PMS5003;72184;51.378;-1.342;2023-08-24T06:41:01;1;1;
66395;PMS5003;72184;51.378;-1.342;2023-08-24T06:43:28;1;1;
66395;PMS5003;72184;51.378;-1.342;2023-08-24T06:45:55;1;0;
66395;PMS5003;72184;51.378;-1.342;2023-08-24T06:48:23;0;0;
66395;PMS5003;72184;51.378;-1.342;2023-08-24T06:50:51;3;1;
66395;PMS5003;72184;51.378;-1.342;2023-08-24T06:53:18;1;0;
66395;PMS5003;72184;51.378;-1.342;2023-08-24T06:55:45;1;0;
66395;PMS5003;72184;51.378;-1.342;2023-08-24T06:58:12;0;0;
66395;PMS5003;72184;51.378;-1.342;2023-08-24T07:00:39;2;2;
66395;PMS5003;72184;51.378;-1.342;2023-08-24T07:03:07;3;2;
66395;PMS5003;72184;51.378;-1.342;2023-08-24T07:05:34;1;1;
66395;PMS5003;72184;51.378;-1.342;2023-08-24T07:08:02;2;0;
66395;PMS5003;72184;51.378;-1.342;2023-08-24T07:10:30;2;1;
66395;PMS5003;72184;51.378;-1.342;2023-08-24T07:12:56;1;1;
66395;PMS5003;72184;51.378;-1.342;2023-08-24T07:15:24;2;2;
66395;PMS5003;72184;51.378;-1.342;2023-08-24T07:17:50;0;0;
66395;PMS5003;72184;51.378;-1.342;2023-08-24T07:20:18;1;1;
66395;PMS5003;72184;51.378;-1.342;2023-08-24T07:22:46;1;0;
66395;PMS5003;72184;51.378;-1.342;2023-08-24T07:25:13;0;0;
66395;PMS5003;72184;51.378;-1.342;2023-08-24T07:27:40;0;0;
66395;PMS5003;72184;51.378;-1.342;2023-08-24T07:30:07;0;0;
66395;PMS5003;72184;51.378;-1.342;2023-08-24T07:32:35;0;0;
66395;PMS5003;72184;51.378;-1.342;2023-08-24T07:35:02;1;1;
66395;PMS5003;72184;51.378;-1.342;2023-08-24T07:37:30;1;1;
66395;PMS5003;72184;51.378;-1.342;2023-08-24T07:39:57;1;1;
66395;PMS5003;72184;51.378;-1.342;2023-08-24T07:42:24;1;0;
66395;PMS5003;72184;51.378;-1.342;2023-08-24T07:44:51;0;0;
66395;PMS5003;72184;51.378;-1.342;2023-08-24T07:47:18;0;0;
66395;PMS5003;72184;51.378;-1.342;2023-08-24T07:49:45;0;0;
66395;PMS5003;72184;51.378;-1.342;2023-08-24T07:52:12;1;0;
66395;PMS5003;72184;51.378;-1.342;2023-08-24T07:54:39;0;0;
66395;PMS5003;72184;51.378;-1.342;2023-08-24T07:57:06;0;0;
66395;PMS5003;72184;51.378;-1.342;2023-08-24T07:59:33;0;0;
66395;PMS5003;72184;51.378;-1.342;2023-08-24T08:02:00;0;0;
66395;PMS5003;72184;51.378;-1.342;2023-08-24T08:04:27;1;1;
66395;PMS5003;72184;51.378;-1.342;2023-08-24T08:06:54;3;2;
66395;PMS5003;72184;51.378;-1.342;2023-08-24T08:09:21;2;2;
66395;PMS5003;72184;51.378;-1.342;2023-08-24T08:11:48;5;4;
66395;PMS5003;72184;51.378;-1.342;2023-08-24T08:14:15;4;3;
66395;PMS5003;72184;51.378;-1.342;2023-08-24T08:16:43;6;6;
66395;PMS5003;72184;51.378;-1.342;2023-08-24T08:19:10;7;6;
66395;PMS5003;72184;51.378;-1.342;2023-08-24T08:21:37;5;5;
66395;PMS5003;72184;51.378;-1.342;2023-08-24T08:24:04;5;5;
66395;PMS5003;72184;51.378;-1.342;2023-08-24T08:26:32;5;5;
66395;PMS5003;72184;51.378;-1.342;2023-08-24T08:28:59;4;4;
66395;PMS5003;72184;51.378;-1.342;2023-08-24T08:31:26;2;2;
66395;PMS5003;72184;51.378;-1.342;2023-08-24T08:33:53;3;3;
66395;PMS5003;72184;51.378;-1.342;2023-08-24T08:36:20;3;3;
66395;PMS5003;72184;51.378;-1.342;2023-08-24T08:38:47;3;3;
66395;PMS5003;72184;51.378;-1.342;2023-08-24T08:41:14;4;3;
66395;PMS5003;72184;51.378;-1.342;2023-08-24T08:43:44;2;2;
66395;PMS5003;72184;51.378;-1.342;2023-08-24T08:46:12;1;1;
66395;PMS5003;72184;51.378;-1.342;2023-08-24T08:48:40;1;1;
66395;PMS5003;72184;51.378;-1.342;2023-08-24T08:51:08;1;0;
66395;PMS5003;72184;51.378;-1.342;2023-08-24T08:53:36;3;3;
66395;PMS5003;72184;51.378;-1.342;2023-08-24T08:56:03;5;4;
66395;PMS5003;72184;51.378;-1.342;2023-08-24T08:58:32;3;3;
66395;PMS5003;72184;51.378;-1.342;2023-08-24T09:01:00;3;3;
66395;PMS5003;72184;51.378;-1.342;2023-08-24T09:03:29;3;0;
66395;PMS5003;72184;51.378;-1.342;2023-08-24T09:05:58;2;2;
66395;PMS5003;72184;51.378;-1.342;2023-08-24T09:08:25;2;2;
66395;PMS5003;72184;51.378;-1.342;2023-08-24T09:10:53;3;3;
66395;PMS5003;72184;51.378;-1.342;2023-08-24T09:13:21;0;0;
66395;PMS5003;72184;51.378;-1.342;2023-08-24T09:15:48;1;0;
66395;PMS5003;72184;51.378;-1.342;2023-08-24T09:18:18;1;0;
66395;PMS5003;72184;51.378;-1.342;2023-08-24T09:20:46;1;0;
66395;PMS5003;72184;51.378;-1.342;2023-08-24T09:23:17;0;0;
66395;PMS5003;72184;51.378;-1.342;2023-08-24T09:25:45;1;0;
66395;PMS5003;72184;51.378;-1.342;2023-08-24T09:28:13;1;0;
66395;PMS5003;72184;51.378;-1.342;2023-08-24T09:30:41;0;0;
66395;PMS5003;72184;51.378;-1.342;2023-08-24T09:33:12;1;0;
66395;PMS5003;72184;51.378;-1.342;2023-08-24T09:35:40;0;0;
66395;PMS5003;72184;51.378;-1.342;2023-08-24T09:38:15;0;0;
66395;PMS5003;72184;51.378;-1.342;2023-08-24T09:40:44;0;0;
66395;PMS5003;72184;51.378;-1.342;2023-08-24T09:43:12;0;0;
66395;PMS5003;72184;51.378;-1.342;2023-08-24T09:45:47;0;0;
66395;PMS5003;72184;51.378;-1.342;2023-08-24T09:48:16;0;0;
66395;PMS5003;72184;51.378;-1.342;2023-08-24T09:50:44;0;0;
66395;PMS5003;72184;51.378;-1.342;2023-08-24T09:53:12;0;0;
66395;PMS5003;72184;51.378;-1.342;2023-08-24T09:55:44;1;0;
66395;PMS5003;72184;51.378;-1.342;2023-08-24T09:58:20;0;0;
66395;PMS5003;72184;51.378;-1.342;2023-08-24T10:00:49;0;0;
66395;PMS5003;72184;51.378;-1.342;2023-08-24T10:03:18;2;1;
66395;PMS5003;72184;51.378;-1.342;2023-08-24T10:05:47;1;1;
66395;PMS5003;72184;51.378;-1.342;2023-08-24T10:08:20;7;5;
66395;PMS5003;72184;51.378;-1.342;2023-08-24T10:10:52;21;21;
66395;PMS5003;72184;51.378;-1.342;2023-08-24T10:13:23;22;21;
66395;PMS5003;72184;51.378;-1.342;2023-08-24T10:15:56;16;13;
66395;PMS5003;72184;51.378;-1.342;2023-08-24T10:18:26;1;1;
66395;PMS5003;72184;51.378;-1.342;2023-08-24T10:20:54;2;0;
66395;PMS5003;72184;51.378;-1.342;2023-08-24T10:23:23;0;0;
66395;PMS5003;72184;51.378;-1.342;2023-08-24T10:25:54;0;0;
66395;PMS5003;72184;51.378;-1.342;2023-08-24T10:28:23;0;0;
66395;PMS5003;72184;51.378;-1.342;2023-08-24T10:30:50;0;0;
66395;PMS5003;72184;51.378;-1.342;2023-08-24T10:33:18;0;0;
66395;PMS5003;72184;51.378;-1.342;2023-08-24T10:35:47;0;0;
66395;PMS5003;72184;51.378;-1.342;2023-08-24T10:38:22;0;0;
66395;PMS5003;72184;51.378;-1.342;2023-08-24T10:40:51;0;0;
66395;PMS5003;72184;51.378;-1.342;2023-08-24T10:43:20;0;0;
66395;PMS5003;72184;51.378;-1.342;2023-08-24T10:45:56;1;0;
66395;PMS5003;72184;51.378;-1.342;2023-08-24T10:48:24;0;0;
66395;PMS5003;72184;51.378;-1.342;2023-08-24T10:51:25;0;0;
66395;PMS5003;72184;51.378;-1.342;2023-08-24T10:53:53;0;0;
66395;PMS5003;72184;51.378;-1.342;2023-08-24T10:56:30;0;0;
66395;PMS5003;72184;51.378;-1.342;2023-08-24T10:59:17;0;0;
66395;PMS5003;72184;51.378;-1.342;2023-08-24T11:01:54;0;0;
66395;PMS5003;72184;51.378;-1.342;2023-08-24T11:04:23;1;0;
66395;PMS5003;72184;51.378;-1.342;2023-08-24T11:06:51;0;0;
66395;PMS5003;72184;51.378;-1.342;2023-08-24T11:09:20;0;0;
66395;PMS5003;72184;51.378;-1.342;2023-08-24T11:11:56;0;0;
66395;PMS5003;72184;51.378;-1.342;2023-08-24T11:14:26;0;0;
66395;PMS5003;72184;51.378;-1.342;2023-08-24T11:16:55;0;0;
66395;PMS5003;72184;51.378;-1.342;2023-08-24T11:19:24;0;0;
66395;PMS5003;72184;51.378;-1.342;2023-08-24T11:21:51;0;0;
66395;PMS5003;72184;51.378;-1.342;2023-08-24T11:24:19;0;0;
66395;PMS5003;72184;51.378;-1.342;2023-08-24T11:26:47;0;0;
66395;PMS5003;72184;51.378;-1.342;2023-08-24T11:29:16;0;0;
66395;PMS5003;72184;51.378;-1.342;2023-08-24T11:31:44;0;0;
66395;PMS5003;72184;51.378;-1.342;2023-08-24T11:34:14;0;0;
66395;PMS5003;72184;51.378;-1.342;2023-08-24T11:36:43;0;0;
66395;PMS5003;72184;51.378;-1.342;2023-08-24T11:39:14;0;0;
66395;PMS5003;72184;51.378;-1.342;2023-08-24T11:41:43;0;0;
66395;PMS5003;72184;51.378;-1.342;2023-08-24T11:44:11;0;0;
66395;PMS5003;72184;51.378;-1.342;2023-08-24T11:46:38;0;0;
66395;PMS5003;72184;51.378;-1.342;2023-08-24T11:49:06;0;0;
66395;PMS5003;72184;51.378;-1.342;2023-08-24T11:51:33;0;0;
66395;PMS5003;72184;51.378;-1.342;2023-08-24T11:54:03;0;0;
66395;PMS5003;72184;51.378;-1.342;2023-08-24T11:56:31;0;0;
66395;PMS5003;72184;51.378;-1.342;2023-08-24T11:58:58;0;0;
66395;PMS5003;72184;51.378;-1.342;2023-08-24T12:01:26;0;0;
66395;PMS5003;72184;51.378;-1.342;2023-08-24T12:03:54;0;0;
66395;PMS5003;72184;51.378;-1.342;2023-08-24T12:06:21;2;1;
66395;PMS5003;72184;51.378;-1.342;2023-08-24T12:08:53;0;0;
66395;PMS5003;72184;51.378;-1.342;2023-08-24T12:11:21;0;0;
66395;PMS5003;72184;51.378;-1.342;2023-08-24T12:13:49;0;0;
66395;PMS5003;72184;51.378;-1.342;2023-08-24T12:16:17;0;0;
66395;PMS5003;72184;51.378;-1.342;2023-08-24T12:18:46;0;0;
66395;PMS5003;72184;51.378;-1.342;2023-08-24T12:21:14;0;0;
66395;PMS5003;72184;51.378;-1.342;2023-08-24T12:23:42;1;0;
66395;PMS5003;72184;51.378;-1.342;2023-08-24T12:26:17;0;0;
66395;PMS5003;72184;51.378;-1.342;2023-08-24T12:28:48;0;0;
66395;PMS5003;72184;51.378;-1.342;2023-08-24T12:31:16;0;0;
66395;PMS5003;72184;51.378;-1.342;2023-08-24T12:33:45;0;0;
66395;PMS5003;72184;51.378;-1.342;2023-08-24T12:36:23;0;0;
66395;PMS5003;72184;51.378;-1.342;2023-08-24T12:38:51;0;0;
66395;PMS5003;72184;51.378;-1.342;2023-08-24T12:41:18;0;0;
66395;PMS5003;72184;51.378;-1.342;2023-08-24T12:43:46;0;0;
66395;PMS5003;72184;51.378;-1.342;2023-08-24T12:46:14;0;0;
66395;PMS5003;72184;51.378;-1.342;2023-08-24T12:48:41;0;0;
66395;PMS5003;72184;51.378;-1.342;2023-08-24T12:51:09;0;0;
66395;PMS5003;72184;51.378;-1.342;2023-08-24T12:53:36;0;0;
66395;PMS5003;72184;51.378;-1.342;2023-08-24T12:56:04;0;0;
66395;PMS5003;72184;51.378;-1.342;2023-08-24T12:58:31;0;0;
66395;PMS5003;72184;51.378;-1.342;2023-08-24T13:00:59;0;0;
66395;PMS5003;72184;51.378;-1.342;2023-08-24T13:03:27;0;0;
66395;PMS5003;72184;51.378;-1.342;2023-08-24T13:05:54;0;0;
66395;PMS5003;72184;51.378;-1.342;2023-08-24T13:08:22;0;0;
66395;PMS5003;72184;51.378;-1.342;2023-08-24T13:10:49;0;0;
66395;PMS5003;72184;51.378;-1.342;2023-08-24T13:13:17;0;0;
66395;PMS5003;72184;51.378;-1.342;2023-08-24T13:15:45;0;0;
66395;PMS5003;72184;51.378;-1.342;2023-08-24T13:18:12;0;0;
66395;PMS5003;72184;51.378;-1.342;2023-08-24T13:20:40;0;0;
66395;PMS5003;72184;51.378;-1.342;2023-08-24T13:23:07;0;0;
66395;PMS5003;72184;51.378;-1.342;2023-08-24T13:25:35;0;0;
66395;PMS5003;72184;51.378;-1.342;2023-08-24T13:28:03;0;0;
66395;PMS5003;72184;51.378;-1.342;2023-08-24T13:30:30;0;0;
66395;PMS5003;72184;51.378;-1.342;2023-08-24T13:32:57;1;0;
66395;PMS5003;72184;51.378;-1.342;2023-08-24T13:35:25;0;0;
66395;PMS5003;72184;51.378;-1.342;2023-08-24T13:37:52;0;0;
66395;PMS5003;72184;51.378;-1.342;2023-08-24T13:40:20;0;0;
66395;PMS5003;72184;51.378;-1.342;2023-08-24T13:42:47;0;0;
66395;PMS5003;72184;51.378;-1.342;2023-08-24T13:45:15;0;0;
66395;PMS5003;72184;51.378;-1.342;2023-08-24T13:47:42;0;0;
66395;PMS5003;72184;51.378;-1.342;2023-08-24T13:50:10;0;0;
66395;PMS5003;72184;51.378;-1.342;2023-08-24T13:52:37;0;0;
66395;PMS5003;72184;51.378;-1.342;2023-08-24T13:55:05;0;0;
66395;PMS5003;72184;51.378;-1.342;2023-08-24T13:57:34;0;0;
66395;PMS5003;72184;51.378;-1.342;2023-08-24T14:00:01;0;0;
66395;PMS5003;72184;51.378;-1.342;2023-08-24T14:02:30;0;0;
66395;PMS5003;72184;51.378;-1.342;2023-08-24T14:04:57;0;0;
66395;PMS5003;72184;51.378;-1.342;2023-08-24T14:07:25;0;0;
66395;PMS5003;72184;51.378;-1.342;2023-08-24T14:09:52;0;0;
66395;PMS5003;72184;51.378;-1.342;2023-08-24T14:12:20;0;0;
66395;PMS5003;72184;51.378;-1.342;2023-08-24T14:14:47;0;0;
66395;PMS5003;72184;51.378;-1.342;2023-08-24T14:17:15;0;0;
66395;PMS5003;72184;51.378;-1.342;2023-08-24T14:19:42;0;0;
66395;PMS5003;72184;51.378;-1.342;2023-08-24T14:22:10;0;0;
66395;PMS5003;72184;51.378;-1.342;2023-08-24T14:24:37;0;0;
66395;PMS5003;72184;51.378;-1.342;2023-08-24T14:27:05;0;0;
66395;PMS5003;72184;51.378;-1.342;2023-08-24T14:29:32;0;0;
66395;PMS5003;72184;51.378;-1.342;2023-08-24T14:32:00;0;0;
66395;PMS5003;72184;51.378;-1.342;2023-08-24T14:34:27;0;0;
66395;PMS5003;72184;51.378;-1.342;2023-08-24T14:36:55;0;0;
66395;PMS5003;72184;51.378;-1.342;2023-08-24T14:39:22;0;0;
66395;PMS5003;72184;51.378;-1.342;2023-08-24T14:41:50;0;0;
66395;PMS5003;72184;51.378;-1.342;2023-08-24T14:44:17;0;0;
66395;PMS5003;72184;51.378;-1.342;2023-08-24T14:46:45;0;0;
66395;PMS5003;72184;51.378;-1.342;2023-08-24T14:49:12;0;0;
66395;PMS5003;72184;51.378;-1.342;2023-08-24T14:51:40;0;0;
66395;PMS5003;72184;51.378;-1.342;2023-08-24T14:54:07;0;0;
66395;PMS5003;72184;51.378;-1.342;2023-08-24T14:56:34;0;0;
66395;PMS5003;72184;51.378;-1.342;2023-08-24T14:59:02;0;0;
66395;PMS5003;72184;51.378;-1.342;2023-08-24T15:01:29;0;0;
66395;PMS5003;72184;51.378;-1.342;2023-08-24T15:03:57;0;0;
66395;PMS5003;72184;51.378;-1.342;2023-08-24T15:06:24;0;0;
66395;PMS5003;72184;51.378;-1.342;2023-08-24T15:08:52;0;0;
66395;PMS5003;72184;51.378;-1.342;2023-08-24T15:11:19;0;0;
66395;PMS5003;72184;51.378;-1.342;2023-08-24T15:13:47;0;0;
66395;PMS5003;72184;51.378;-1.342;2023-08-24T15:16:14;1;0;
66395;PMS5003;72184;51.378;-1.342;2023-08-24T15:18:42;0;0;
66395;PMS5003;72184;51.378;-1.342;2023-08-24T15:21:10;0;0;
66395;PMS5003;72184;51.378;-1.342;2023-08-24T15:23:37;0;0;
66395;PMS5003;72184;51.378;-1.342;2023-08-24T15:26:05;0;0;
66395;PMS5003;72184;51.378;-1.342;2023-08-24T15:28:36;0;0;
66395;PMS5003;72184;51.378;-1.342;2023-08-24T15:31:04;0;0;
66395;PMS5003;72184;51.378;-1.342;2023-08-24T15:33:31;0;0;
66395;PMS5003;72184;51.378;-1.342;2023-08-24T15:35:58;0;0;
66395;PMS5003;72184;51.378;-1.342;2023-08-24T15:38:26;0;0;
66395;PMS5003;72184;51.378;-1.342;2023-08-24T15:40:53;0;0;
66395;PMS5003;72184;51.378;-1.342;2023-08-24T15:43:21;0;0;
66395;PMS5003;72184;51.378;-1.342;2023-08-24T15:45:49;0;0;
66395;PMS5003;72184;51.378;-1.342;2023-08-24T15:48:16;0;0;
66395;PMS5003;72184;51.378;-1.342;2023-08-24T15:50:44;0;0;
66395;PMS5003;72184;51.378;-1.342;2023-08-24T15:53:11;0;0;
66395;PMS5003;72184;51.378;-1.342;2023-08-24T15:55:39;0;0;
66395;PMS5003;72184;51.378;-1.342;2023-08-24T15:58:06;0;0;
66395;PMS5003;72184;51.378;-1.342;2023-08-24T16:00:34;0;0;
66395;PMS5003;72184;51.378;-1.342;2023-08-24T16:03:01;0;0;
66395;PMS5003;72184;51.378;-1.342;2023-08-24T16:05:29;0;0;
66395;PMS5003;72184;51.378;-1.342;2023-08-24T16:07:59;0;0;
66395;PMS5003;72184;51.378;-1.342;2023-08-24T16:10:27;0;0;
66395;PMS5003;72184;51.378;-1.342;2023-08-24T16:12:54;0;0;
66395;PMS5003;72184;51.378;-1.342;2023-08-24T16:15:22;0;0;
66395;PMS5003;72184;51.378;-1.342;2023-08-24T16:17:49;0;0;
66395;PMS5003;72184;51.378;-1.342;2023-08-24T16:20:17;0;0;
66395;PMS5003;72184;51.378;-1.342;2023-08-24T16:22:44;0;0;
66395;PMS5003;72184;51.378;-1.342;2023-08-24T16:25:12;0;0;
66395;PMS5003;72184;51.378;-1.342;2023-08-24T16:27:39;0;0;
66395;PMS5003;72184;51.378;-1.342;2023-08-24T16:30:07;0;0;
66395;PMS5003;72184;51.378;-1.342;2023-08-24T16:32:35;0;0;
66395;PMS5003;72184;51.378;-1.342;2023-08-24T16:35:03;0;0;
66395;PMS5003;72184;51.378;-1.342;2023-08-24T16:37:31;0;0;
66395;PMS5003;72184;51.378;-1.342;2023-08-24T16:39:59;0;0;